createdAt,value
2023-04-03T00:01:49.327Z,5.10
2023-04-03T00:04:16.832Z,5.10
2023-04-03T00:06:44.408Z,5.10
2023-04-03T00:09:11.937Z,5.10
2023-04-03T00:11:39.470Z,5.10
2023-04-03T00:14:07.035Z,5.00
2023-04-03T00:16:34.625Z,5.00
2023-04-03T00:19:02.122Z,5.20
2023-04-03T00:21:29.688Z,5.20
2023-04-03T00:23:57.224Z,5.20
2023-04-03T00:26:24.747Z,5.20
2023-04-03T00:28:52.310Z,5.40
2023-04-03T00:31:19.907Z,5.40
2023-04-03T00:33:47.361Z,5.30
2023-04-03T00:36:15.074Z,5.30
2023-04-03T00:38:42.460Z,5.20
2023-04-03T00:41:09.990Z,5.10
2023-04-03T00:43:37.557Z,5.10
2023-04-03T00:46:05.165Z,5.20
2023-04-03T00:48:35.482Z,5.10
2023-04-03T00:51:03.079Z,5.10
2023-04-03T00:53:57.572Z,5.10
2023-04-03T00:56:25.123Z,5.10
2023-04-03T00:59:01.168Z,5.30
2023-04-03T01:01:28.731Z,5.20
2023-04-03T01:03:56.276Z,5.40
2023-04-03T01:06:26.593Z,5.30
2023-04-03T01:08:54.133Z,5.30
2023-04-03T01:11:21.697Z,5.20
2023-04-03T01:13:49.243Z,5.20
2023-04-03T01:16:16.868Z,5.20
2023-04-03T01:18:44.325Z,5.10
2023-04-03T01:21:29.712Z,5.10
2023-04-03T01:24:11.540Z,5.20
2023-04-03T01:26:39.077Z,5.50
2023-04-03T01:29:06.592Z,5.40
2023-04-03T01:31:36.893Z,5.30
2023-04-03T01:34:04.394Z,5.20
2023-04-03T01:36:31.914Z,5.10
2023-04-03T01:38:59.509Z,5.00
2023-04-03T01:41:27.004Z,4.90
2023-04-03T01:43:54.550Z,4.90
2023-04-03T01:46:22.134Z,4.80
2023-04-03T01:48:49.684Z,4.70
2023-04-03T01:51:17.213Z,4.60
2023-04-03T01:53:44.782Z,4.60
2023-04-03T01:56:12.310Z,4.50
2023-04-03T01:58:39.854Z,4.40
2023-04-03T02:01:07.468Z,4.40
2023-04-03T02:03:35.052Z,4.50
2023-04-03T02:06:02.551Z,4.40
2023-04-03T02:08:30.125Z,4.60
2023-04-03T02:10:57.616Z,4.50
2023-04-03T02:13:25.189Z,4.30
2023-04-03T02:15:52.760Z,4.20
2023-04-03T02:18:20.288Z,4.10
2023-04-03T02:20:47.830Z,4.00
2023-04-03T02:23:15.402Z,4.00
2023-04-03T02:25:42.944Z,3.90
2023-04-03T02:28:10.463Z,3.90
2023-04-03T02:30:38.162Z,3.80
2023-04-03T02:33:05.593Z,3.70
2023-04-03T02:35:33.106Z,3.70
2023-04-03T02:38:00.633Z,3.70
2023-04-03T02:40:28.166Z,3.70
2023-04-03T02:42:55.678Z,3.60
2023-04-03T02:45:23.255Z,3.60
2023-04-03T02:47:50.861Z,3.80
2023-04-03T02:50:18.351Z,3.70
2023-04-03T02:52:46.879Z,3.90
2023-04-03T02:55:14.420Z,3.90
2023-04-03T02:57:41.955Z,3.80
2023-04-03T03:00:10.418Z,3.70
2023-04-03T03:02:37.955Z,3.60
2023-04-03T03:05:05.556Z,3.60
2023-04-03T03:07:33.057Z,3.40
2023-04-03T03:10:00.602Z,3.30
2023-04-03T03:12:28.122Z,3.20
2023-04-03T03:14:55.976Z,3.20
2023-04-03T03:17:23.553Z,3.10
2023-04-03T03:19:51.034Z,3.00
2023-04-03T03:22:18.592Z,2.90
2023-04-03T03:24:46.344Z,3.00
2023-04-03T03:27:13.868Z,3.00
2023-04-03T03:29:41.433Z,2.80
2023-04-03T03:32:08.969Z,2.80
2023-04-03T03:34:36.492Z,2.70
2023-04-03T03:37:04.138Z,2.60
2023-04-03T03:39:31.658Z,2.60
2023-04-03T03:41:59.196Z,2.60
2023-04-03T03:44:26.759Z,2.50
2023-04-03T03:46:54.404Z,2.70
2023-04-03T03:49:21.817Z,2.60
2023-04-03T03:51:49.393Z,2.80
2023-04-03T03:54:16.913Z,2.70
2023-04-03T03:56:44.449Z,2.60
2023-04-03T03:59:12.037Z,2.50
2023-04-03T04:01:39.567Z,2.40
2023-04-03T04:04:07.136Z,2.40
2023-04-03T04:06:34.737Z,2.60
2023-04-03T04:09:02.262Z,2.50
2023-04-03T04:11:29.786Z,2.50
2023-04-03T04:13:57.885Z,2.30
2023-04-03T04:16:25.445Z,2.50
2023-04-03T04:18:52.944Z,2.50
2023-04-03T04:21:20.548Z,2.40
2023-04-03T04:23:48.072Z,2.30
2023-04-03T04:26:15.617Z,2.20
2023-04-03T04:28:43.153Z,2.10
2023-04-03T04:31:10.736Z,2.10
2023-04-03T04:33:38.229Z,2.10
2023-04-03T04:36:05.909Z,2.10
2023-04-03T04:38:33.355Z,2.00
2023-04-03T04:41:00.889Z,2.00
2023-04-03T04:43:28.562Z,1.90
2023-04-03T04:46:01.823Z,1.90
2023-04-03T04:48:31.460Z,1.80
2023-04-03T04:50:57.173Z,1.80
2023-04-03T04:53:24.721Z,2.00
2023-04-03T04:55:52.261Z,2.10
2023-04-03T04:58:19.858Z,2.00
2023-04-03T05:00:47.389Z,1.90
2023-04-03T05:03:14.908Z,1.90
2023-04-03T05:05:42.472Z,1.90
2023-04-03T05:08:10.003Z,1.90
2023-04-03T05:10:37.532Z,2.10
2023-04-03T05:13:05.107Z,2.30
2023-04-03T05:15:32.631Z,2.30
2023-04-03T05:18:00.251Z,2.20
2023-04-03T05:20:27.779Z,2.10
2023-04-03T05:22:55.301Z,2.10
2023-04-03T05:25:22.825Z,2.00
2023-04-03T05:27:50.416Z,1.90
2023-04-03T05:30:17.964Z,1.90
2023-04-03T05:32:45.547Z,1.90
2023-04-03T05:35:13.040Z,1.90
2023-04-03T05:37:40.643Z,2.10
2023-04-03T05:40:08.206Z,2.20
2023-04-03T05:42:35.717Z,2.10
2023-04-03T05:45:03.274Z,2.10
2023-04-03T05:47:30.862Z,2.10
2023-04-03T05:49:58.319Z,2.10
2023-04-03T05:52:28.605Z,2.10
2023-04-03T05:54:56.137Z,2.10
2023-04-03T05:57:23.690Z,2.30
2023-04-03T05:59:51.246Z,2.30
2023-04-03T06:02:21.564Z,2.30
2023-04-03T06:04:49.230Z,2.30
2023-04-03T06:07:16.735Z,2.50
2023-04-03T06:09:44.254Z,2.70
2023-04-03T06:12:11.781Z,2.70
2023-04-03T06:14:39.351Z,2.60
2023-04-03T06:17:06.903Z,2.60
2023-04-03T06:19:34.405Z,2.80
2023-04-03T06:22:01.968Z,3.10
2023-04-03T06:24:29.480Z,3.10
2023-04-03T06:26:57.023Z,3.00
2023-04-03T06:29:24.599Z,3.00
2023-04-03T06:31:52.134Z,2.90
2023-04-03T06:34:19.654Z,2.90
2023-04-03T06:36:47.279Z,3.10
2023-04-03T06:39:14.808Z,3.20
2023-04-03T06:41:42.515Z,3.20
2023-04-03T06:44:09.954Z,3.20
2023-04-03T06:46:37.503Z,3.20
2023-04-03T06:49:05.023Z,3.30
2023-04-03T06:51:32.617Z,3.50
2023-04-03T06:54:00.159Z,3.80
2023-04-03T06:56:27.689Z,3.80
2023-04-03T06:58:57.970Z,3.80
2023-04-03T07:01:25.575Z,3.80
2023-04-03T07:03:53.017Z,3.90
2023-04-03T07:06:20.582Z,3.90
2023-04-03T07:08:48.116Z,4.00
2023-04-03T07:11:15.637Z,4.00
2023-04-03T07:13:43.236Z,4.10
2023-04-03T07:16:10.772Z,4.20
2023-04-03T07:18:38.279Z,4.30
2023-04-03T07:21:05.918Z,4.60
2023-04-03T07:23:33.379Z,4.70
2023-04-03T07:26:00.911Z,4.70
2023-04-03T07:28:28.505Z,4.80
2023-04-03T07:30:56.032Z,4.90
2023-04-03T07:33:23.584Z,5.10
2023-04-03T07:35:51.225Z,5.50
2023-04-03T07:38:18.712Z,5.60
2023-04-03T07:40:49.160Z,5.60
2023-04-03T07:43:16.764Z,5.70
2023-04-03T07:45:44.336Z,5.80
2023-04-03T07:48:11.795Z,5.80
2023-04-03T07:50:39.359Z,5.80
2023-04-03T07:53:06.888Z,6.10
2023-04-03T07:55:35.090Z,6.10
2023-04-03T07:58:02.007Z,6.30
2023-04-03T08:00:29.530Z,6.30
2023-04-03T08:02:57.158Z,6.30
2023-04-03T08:05:24.635Z,6.20
2023-04-03T08:07:52.169Z,6.30
2023-04-03T08:10:19.725Z,6.30
2023-04-03T08:12:47.286Z,6.30
2023-04-03T08:15:14.823Z,6.50
2023-04-03T08:17:42.387Z,6.50
2023-04-03T08:20:10.477Z,6.70
2023-04-03T08:22:38.001Z,6.70
2023-04-03T08:25:05.532Z,6.70
2023-04-03T08:27:36.261Z,6.80
2023-04-03T08:30:03.787Z,6.80
2023-04-03T08:32:31.369Z,6.80
2023-04-03T08:34:58.889Z,6.80
2023-04-03T08:37:26.428Z,6.90
2023-04-03T08:39:53.951Z,6.90
2023-04-03T08:42:42.796Z,6.90
2023-04-03T08:45:12.302Z,7.00
2023-04-03T08:47:45.638Z,6.90
2023-04-03T08:50:13.669Z,6.90
2023-04-03T08:52:41.208Z,6.90
2023-04-03T08:55:08.730Z,7.00
2023-04-03T08:57:42.379Z,7.00
2023-04-03T09:00:15.683Z,6.90
2023-04-03T09:02:43.236Z,6.80
2023-04-03T09:05:16.545Z,7.00
2023-04-03T09:07:44.079Z,7.00
2023-04-03T09:10:11.602Z,6.90
2023-04-03T09:12:39.157Z,7.00
2023-04-03T09:15:35.503Z,7.00
2023-04-03T09:17:55.288Z,6.90
2023-04-03T09:20:28.667Z,6.80
2023-04-03T09:22:56.193Z,6.70
2023-04-03T09:25:26.401Z,6.70
2023-04-03T09:27:53.930Z,6.70
2023-04-03T09:30:23.887Z,6.60
2023-04-03T09:32:52.878Z,6.80
2023-04-03T09:35:44.141Z,6.70
2023-04-03T09:38:02.718Z,6.70
2023-04-03T09:40:32.951Z,6.80
2023-04-03T09:43:01.747Z,6.90
2023-04-03T09:45:28.060Z,7.10
2023-04-03T09:48:16.955Z,7.20
2023-04-03T09:50:58.851Z,7.20
2023-04-03T09:53:31.753Z,7.60
2023-04-03T09:55:59.287Z,7.70
2023-04-03T09:58:42.790Z,7.60
2023-04-03T10:01:00.182Z,7.70
2023-04-03T10:03:34.624Z,7.70
2023-04-03T10:06:00.755Z,7.70
2023-04-03T10:08:31.162Z,7.80
2023-04-03T10:11:10.552Z,7.90
2023-04-03T10:13:48.781Z,8.30
2023-04-03T10:16:11.161Z,8.40
2023-04-03T10:18:47.414Z,8.60
2023-04-03T10:21:32.824Z,8.60
2023-04-03T10:24:15.727Z,8.70
2023-04-03T10:26:55.311Z,8.60
2023-04-03T10:29:28.432Z,8.50
2023-04-03T10:32:01.404Z,8.40
2023-04-03T10:34:37.348Z,8.40
2023-04-03T10:37:19.749Z,8.40
2023-04-03T10:39:59.175Z,8.50
2023-04-03T10:42:29.740Z,8.60
2023-04-03T10:45:21.467Z,8.60
2023-04-03T10:48:09.693Z,8.60
2023-04-03T10:50:40.207Z,8.70
2023-04-03T10:53:31.420Z,8.90
2023-04-03T10:56:20.263Z,8.90
2023-04-03T10:58:50.689Z,8.80
2023-04-03T11:01:18.232Z,8.80
2023-04-03T11:03:45.904Z,8.80
2023-04-03T11:06:13.315Z,8.90
2023-04-03T11:08:43.888Z,9.00
2023-04-03T11:11:11.464Z,9.00
2023-04-03T11:13:44.808Z,9.10
2023-04-03T11:16:12.362Z,9.30
2023-04-03T11:18:43.314Z,9.40
2023-04-03T11:21:25.946Z,9.50
2023-04-03T11:23:53.516Z,9.50
2023-04-03T11:26:21.056Z,9.60
2023-04-03T11:28:48.589Z,9.70
2023-04-03T11:31:43.220Z,9.90
2023-04-03T11:34:16.788Z,10.00
2023-04-03T11:36:53.316Z,10.00
2023-04-03T11:39:32.759Z,9.90
2023-04-03T11:42:21.018Z,9.90
2023-04-03T11:44:48.522Z,9.90
2023-04-03T11:47:16.065Z,10.00
2023-04-03T11:49:58.486Z,10.00
2023-04-03T11:52:43.818Z,10.00
2023-04-03T11:55:23.699Z,10.00
2023-04-03T11:58:00.289Z,10.10
2023-04-03T12:00:46.065Z,10.40
2023-04-03T12:03:28.264Z,10.50
2023-04-03T12:06:08.352Z,10.40
2023-04-03T12:08:41.311Z,10.70
2023-04-03T12:11:14.664Z,10.70
2023-04-03T12:13:53.428Z,10.70
2023-04-03T12:16:21.564Z,10.60
2023-04-03T12:18:54.788Z,10.50
2023-04-03T12:21:22.315Z,10.50
2023-04-03T12:24:10.691Z,10.50
2023-04-03T12:26:47.591Z,10.50
2023-04-03T12:29:43.875Z,10.50
2023-04-03T12:32:27.822Z,10.70
2023-04-03T12:35:25.924Z,10.60
2023-04-03T12:37:56.344Z,10.60
2023-04-03T12:40:42.001Z,10.60
2023-04-03T12:43:33.217Z,10.70
2023-04-03T12:46:06.900Z,10.80
2023-04-03T12:48:40.186Z,10.80
2023-04-03T12:51:07.731Z,10.70
2023-04-03T12:53:35.533Z,10.70
2023-04-03T12:56:21.442Z,10.70
2023-04-03T12:58:49.042Z,10.60
2023-04-03T13:01:16.571Z,10.60
2023-04-03T13:03:44.205Z,10.80
2023-04-03T13:06:20.417Z,10.80
2023-04-03T13:08:56.330Z,10.80
2023-04-03T13:11:23.868Z,10.80
2023-04-03T13:13:57.337Z,10.80
2023-04-03T13:16:24.896Z,10.80
2023-04-03T13:18:52.404Z,10.80
2023-04-03T13:21:20.247Z,10.90
2023-04-03T13:23:47.794Z,11.10
2023-04-03T13:26:15.338Z,11.10
2023-04-03T13:28:42.908Z,11.20
2023-04-03T13:31:13.373Z,11.20
2023-04-03T13:33:40.849Z,11.10
2023-04-03T13:36:11.327Z,11.10
2023-04-03T13:38:38.830Z,11.20
2023-04-03T13:41:06.386Z,11.40
2023-04-03T13:43:33.945Z,11.40
2023-04-03T13:46:07.073Z,11.40
2023-04-03T13:48:43.450Z,11.40
2023-04-03T13:51:13.632Z,11.40
2023-04-03T13:53:43.877Z,11.70
2023-04-03T13:56:11.464Z,11.70
2023-04-03T13:58:38.982Z,11.90
2023-04-03T14:01:12.220Z,11.80
2023-04-03T14:03:39.793Z,11.80
2023-04-03T14:06:07.307Z,11.70
2023-04-03T14:08:42.944Z,11.60
2023-04-03T14:11:02.486Z,11.60
2023-04-03T14:13:32.667Z,11.60
2023-04-03T14:16:08.934Z,11.80
2023-04-03T14:18:27.786Z,11.80
2023-04-03T14:20:55.322Z,11.70
2023-04-03T14:23:22.866Z,11.70
2023-04-03T14:25:50.428Z,11.60
2023-04-03T14:28:20.967Z,11.60
2023-04-03T14:30:48.503Z,11.60
2023-04-03T14:33:16.086Z,11.60
2023-04-03T14:35:43.652Z,11.60
2023-04-03T14:38:16.908Z,11.80
2023-04-03T14:40:44.458Z,11.80
2023-04-03T14:43:11.984Z,11.90
2023-04-03T14:45:39.519Z,11.90
2023-04-03T14:48:07.097Z,11.90
2023-04-03T14:50:34.620Z,12.00
2023-04-03T14:53:02.178Z,11.90
2023-04-03T14:55:29.737Z,11.90
2023-04-03T14:57:57.289Z,12.10
2023-04-03T15:00:24.830Z,12.00
2023-04-03T15:02:52.469Z,11.90
2023-04-03T15:05:19.928Z,11.80
2023-04-03T15:07:50.278Z,11.70
2023-04-03T15:10:20.596Z,11.60
2023-04-03T15:12:48.122Z,11.70
2023-04-03T15:15:15.642Z,11.90
2023-04-03T15:17:43.215Z,12.00
2023-04-03T15:20:16.680Z,12.10
2023-04-03T15:22:44.222Z,12.10
2023-04-03T15:25:11.808Z,12.20
2023-04-03T15:27:39.355Z,12.30
2023-04-03T15:30:06.875Z,12.40
2023-04-03T15:32:34.481Z,12.50
2023-04-03T15:35:01.996Z,12.60
2023-04-03T15:37:29.528Z,12.70
2023-04-03T15:39:57.129Z,12.80
2023-04-03T15:42:24.645Z,12.70
2023-04-03T15:44:52.173Z,12.70
2023-04-03T15:47:19.777Z,12.80
2023-04-03T15:49:47.302Z,12.80
2023-04-03T15:52:14.832Z,12.90
2023-04-03T15:54:42.407Z,12.90
2023-04-03T15:57:10.013Z,12.90
2023-04-03T15:59:37.487Z,12.90
2023-04-03T16:02:05.079Z,13.10
2023-04-03T16:04:32.593Z,13.10
2023-04-03T16:07:00.129Z,13.10
2023-04-03T16:09:27.695Z,13.00
2023-04-03T16:11:55.233Z,13.00
2023-04-03T16:14:22.757Z,13.20
2023-04-03T16:16:50.326Z,13.20
2023-04-03T16:19:17.853Z,13.40
2023-04-03T16:21:45.390Z,13.20
2023-04-03T16:24:13.615Z,13.00
2023-04-03T16:26:40.503Z,12.80
2023-04-03T16:29:08.032Z,12.70
2023-04-03T16:31:35.697Z,12.70
2023-04-03T16:34:03.134Z,12.70
2023-04-03T16:36:30.720Z,12.70
2023-04-03T16:38:58.246Z,12.70
2023-04-03T16:41:25.766Z,12.70
2023-04-03T16:43:53.300Z,12.60
2023-04-03T16:46:20.878Z,12.60
2023-04-03T16:48:48.380Z,12.50
2023-04-03T16:51:15.957Z,12.50
2023-04-03T16:53:43.556Z,12.40
2023-04-03T16:56:11.096Z,12.30
2023-04-03T16:58:38.628Z,12.20
2023-04-03T17:01:11.939Z,12.00
2023-04-03T17:03:39.475Z,12.00
2023-04-03T17:06:06.969Z,11.80
2023-04-03T17:08:34.602Z,11.50
2023-04-03T17:11:02.128Z,11.20
2023-04-03T17:13:29.671Z,11.20
2023-04-03T17:15:57.268Z,10.90
2023-04-03T17:18:24.796Z,10.60
2023-04-03T17:20:52.331Z,10.40
2023-04-03T17:23:19.905Z,10.20
2023-04-03T17:25:47.438Z,10.00
2023-04-03T17:28:14.968Z,9.90
2023-04-03T17:30:42.794Z,9.70
2023-04-03T17:33:10.370Z,9.60
2023-04-03T17:35:38.040Z,9.40
2023-04-03T17:38:05.401Z,9.30
2023-04-03T17:40:32.930Z,9.20
2023-04-03T17:43:00.450Z,9.00
2023-04-03T17:45:28.046Z,8.90
2023-04-03T17:47:55.587Z,8.80
2023-04-03T17:50:23.090Z,8.70
2023-04-03T17:52:50.913Z,8.60
2023-04-03T17:55:18.439Z,8.60
2023-04-03T17:57:45.960Z,8.50
2023-04-03T18:00:13.610Z,8.40
2023-04-03T18:02:41.156Z,8.50
2023-04-03T18:05:08.642Z,8.40
2023-04-03T18:07:36.225Z,8.30
2023-04-03T18:10:03.756Z,8.40
2023-04-03T18:12:33.743Z,8.20
2023-04-03T18:15:01.314Z,8.00
2023-04-03T18:17:28.884Z,7.90
2023-04-03T18:19:56.357Z,7.70
2023-04-03T18:22:23.914Z,7.60
2023-04-03T18:24:51.458Z,7.70
2023-04-03T18:27:18.984Z,7.60
2023-04-03T18:29:46.578Z,7.40
2023-04-03T18:32:14.091Z,7.30
2023-04-03T18:34:41.623Z,7.20
2023-04-03T18:37:09.205Z,7.10
2023-04-03T18:39:36.753Z,7.20
2023-04-03T18:42:04.271Z,7.20
2023-04-03T18:44:31.855Z,7.00
2023-04-03T18:46:59.386Z,7.00
2023-04-03T18:49:29.307Z,6.90
2023-04-03T18:51:56.917Z,6.80
2023-04-03T18:54:24.438Z,6.70
2023-04-03T18:56:51.964Z,6.60
2023-04-03T18:59:19.571Z,6.60
2023-04-03T19:01:47.062Z,6.50
2023-04-03T19:04:14.601Z,6.50
2023-04-03T19:06:42.165Z,6.40
2023-04-03T19:09:09.696Z,6.40
2023-04-03T19:11:37.241Z,6.30
2023-04-03T19:14:16.216Z,6.30
2023-04-03T19:16:32.359Z,6.20
2023-04-03T19:18:59.873Z,6.20
2023-04-03T19:21:27.426Z,6.10
2023-04-03T19:23:54.953Z,6.00
2023-04-03T19:26:22.477Z,6.00
2023-04-03T19:28:50.009Z,5.90
2023-04-03T19:31:17.576Z,5.90
2023-04-03T19:33:45.095Z,5.80
2023-04-03T19:36:12.640Z,5.80
2023-04-03T19:38:40.197Z,5.70
2023-04-03T19:41:07.720Z,5.70
2023-04-03T19:43:35.289Z,5.60
2023-04-03T19:46:02.849Z,5.60
2023-04-03T19:48:30.318Z,5.60
2023-04-03T19:50:57.868Z,5.50
2023-04-03T19:53:25.412Z,5.50
2023-04-03T19:55:52.955Z,5.50
2023-04-03T19:58:20.541Z,5.50
2023-04-03T20:00:48.079Z,5.40
2023-04-03T20:03:15.616Z,5.60
2023-04-03T20:05:43.179Z,5.60
2023-04-03T20:08:10.724Z,5.50
2023-04-03T20:10:38.375Z,5.70
2023-04-03T20:13:05.816Z,5.90
2023-04-03T20:15:33.340Z,6.10
2023-04-03T20:18:00.909Z,5.90
2023-04-03T20:20:28.515Z,5.70
2023-04-03T20:22:56.032Z,5.80
2023-04-03T20:25:43.815Z,6.00
2023-04-03T20:27:51.121Z,5.90
2023-04-03T20:30:18.651Z,5.70
2023-04-03T20:32:46.237Z,5.80
2023-04-03T20:35:13.736Z,5.60
2023-04-03T20:37:41.304Z,5.50
2023-04-03T20:40:08.930Z,5.30
2023-04-03T20:42:36.487Z,5.20
2023-04-03T20:45:04.877Z,5.10
2023-04-03T20:47:31.661Z,5.10
2023-04-03T20:49:59.148Z,5.00
2023-04-03T20:52:26.664Z,5.00
2023-04-03T20:54:54.183Z,4.90
2023-04-03T20:57:21.749Z,4.90
2023-04-03T20:59:49.286Z,4.90
2023-04-03T21:02:16.811Z,4.80
2023-04-03T21:04:44.379Z,4.80
2023-04-03T21:07:48.718Z,5.00
2023-04-03T21:10:53.038Z,4.90
2023-04-03T21:13:57.104Z,4.90
2023-04-03T21:16:24.217Z,5.10
2023-04-03T21:19:09.512Z,5.00
2023-04-03T21:21:37.177Z,5.00
2023-04-03T21:24:07.270Z,4.90
2023-04-03T21:26:34.808Z,4.80
2023-04-03T21:29:03.089Z,4.70
2023-04-03T21:31:48.630Z,4.70
2023-04-03T21:34:16.452Z,4.60
2023-04-03T21:36:46.852Z,4.50
2023-04-03T21:39:14.373Z,4.40
2023-04-03T21:41:41.967Z,4.40
2023-04-03T21:44:09.523Z,4.40
2023-04-03T21:46:37.113Z,4.30
2023-04-03T21:49:04.611Z,4.30
2023-04-03T21:51:32.134Z,4.20
2023-04-03T21:53:59.659Z,4.20
2023-04-03T21:56:27.250Z,4.20
2023-04-03T21:58:54.904Z,4.10
2023-04-03T22:01:22.309Z,4.10
2023-04-03T22:03:50.618Z,4.10
2023-04-03T22:06:18.134Z,4.00
2023-04-03T22:08:45.674Z,4.00
2023-04-03T22:11:13.242Z,4.20
2023-04-03T22:13:40.773Z,4.20
2023-04-03T22:16:08.357Z,4.10
2023-04-03T22:18:35.889Z,4.10
2023-04-03T22:21:03.470Z,4.00
2023-04-03T22:23:31.001Z,4.20
2023-04-03T22:25:58.655Z,4.10
2023-04-03T22:28:26.241Z,4.10
2023-04-03T22:30:53.770Z,4.20
2023-04-03T22:33:21.294Z,4.10
2023-04-03T22:35:48.851Z,4.00
2023-04-03T22:38:16.433Z,3.90
2023-04-03T22:40:43.956Z,3.80
2023-04-03T22:43:11.494Z,3.70
2023-04-03T22:45:47.904Z,3.70
2023-04-03T22:48:15.412Z,3.60
2023-04-03T22:50:43.193Z,3.60
2023-04-03T22:53:10.789Z,3.50
2023-04-03T22:55:38.302Z,3.50
2023-04-03T22:58:05.805Z,3.50
2023-04-03T23:00:33.370Z,3.50
2023-04-03T23:03:00.930Z,3.50
2023-04-03T23:05:28.430Z,3.40
2023-04-03T23:07:55.994Z,3.40
2023-04-03T23:10:23.560Z,3.40
2023-04-03T23:12:51.084Z,3.40
2023-04-03T23:15:18.611Z,3.40
2023-04-03T23:17:46.221Z,3.40
2023-04-03T23:20:13.707Z,3.60
2023-04-03T23:22:41.246Z,3.60
2023-04-03T23:25:09.563Z,3.50
2023-04-03T23:27:37.121Z,3.40
2023-04-03T23:30:04.648Z,3.40
2023-04-03T23:32:32.468Z,3.30
2023-04-03T23:35:00.019Z,3.20
2023-04-03T23:37:27.535Z,3.20
2023-04-03T23:39:55.841Z,3.30
2023-04-03T23:42:23.354Z,3.30
2023-04-03T23:44:50.880Z,3.20
2023-04-03T23:47:18.454Z,3.10
2023-04-03T23:49:45.982Z,3.00
2023-04-03T23:52:13.535Z,3.00
2023-04-03T23:54:41.115Z,3.20
2023-04-03T23:57:08.634Z,3.10
2023-04-03T23:59:36.166Z,3.00
